Time;durP1;ratioP1;P1;durP2;ratioP2;P2;SDS_P1;SDS_P2;PMS_P1;PMS_P2;Temp;Humidity;BMP_temperature;BMP_pressure;BME280_temperature;BME280_humidity;BME280_pressure;Samples;Min_cycle;Max_cycle;Signal;HPM_P1;HPM_P2
2022/06/30 00:00:34;;;;;;;;;;;21.90;99.90;;;;;;4991349;28;20200;-66
2022/06/30 00:03:01;;;;;;;;;;;21.80;99.90;;;;;;4990454;28;20265;-66
2022/06/30 00:05:30;;;;;;;;;;;21.80;99.90;;;;;;4990572;28;20231;-66
2022/06/30 00:07:58;;;;;;;;;;;21.80;99.90;;;;;;4990872;28;20211;-66
2022/06/30 00:10:27;;;;;;;;;;;21.80;99.90;;;;;;4990329;28;20223;-65
2022/06/30 00:12:54;;;;;;;;;;;21.80;99.90;;;;;;4989796;28;20243;-65
2022/06/30 00:15:22;;;;;;;;;;;21.80;99.90;;;;;;4990744;28;20858;-65
2022/06/30 00:17:50;;;;;;;;;;;21.80;99.90;;;;;;4990333;28;20207;-66
2022/06/30 00:20:19;;;;;;;;;;;21.70;99.90;;;;;;4989666;28;20623;-65
2022/06/30 00:22:47;;;;;;;;;;;21.70;99.90;;;;;;4989242;28;20642;-66
2022/06/30 00:25:17;;;;;;;;;;;21.60;99.90;;;;;;4990072;28;20290;-66
2022/06/30 00:27:46;;;;;;;;;;;21.60;99.90;;;;;;4990126;28;20199;-65
2022/06/30 00:30:14;;;;;;;;;;;21.60;99.90;;;;;;4989660;28;20230;-66
2022/06/30 00:32:42;;;;;;;;;;;21.60;99.90;;;;;;4989028;28;20199;-66
2022/06/30 00:35:09;;;;;;;;;;;21.50;99.90;;;;;;4989107;28;20231;-66
2022/06/30 00:37:37;;;;;;;;;;;21.50;99.90;;;;;;4989780;28;20208;-66
2022/06/30 00:40:06;;;;;;;;;;;21.40;99.90;;;;;;4989967;28;20234;-65
2022/06/30 00:42:34;;;;;;;;;;;21.40;99.90;;;;;;4989182;28;20581;-66
2022/06/30 00:45:03;;;;;;;;;;;21.30;99.90;;;;;;4989565;28;20203;-66
2022/06/30 00:47:30;;;;;;;;;;;21.30;99.90;;;;;;4989620;28;20200;-65
2022/06/30 00:49:58;;;;;;;;;;;21.30;99.90;;;;;;4989704;28;20203;-65
2022/06/30 00:52:29;;;;;;;;;;;21.30;99.90;;;;;;4988501;28;20250;-65
2022/06/30 00:54:58;;;;;;;;;;;21.40;99.90;;;;;;4989123;28;20235;-65
2022/06/30 00:57:26;;;;;;;;;;;21.40;99.90;;;;;;4989381;28;20204;-65
2022/06/30 00:59:54;;;;;;;;;;;21.40;99.90;;;;;;4989455;28;20199;-65
2022/06/30 01:02:23;;;;;;;;;;;21.30;99.90;;;;;;4988819;28;20289;-65
2022/06/30 01:04:53;;;;;;;;;;;21.30;99.90;;;;;;4988704;28;20238;-65
2022/06/30 01:07:22;;;;;;;;;;;21.30;99.90;;;;;;4989330;28;20204;-65
2022/06/30 01:12:44;;;;;;;;;;;21.30;99.90;;;;;;4983833;28;20204;-65
2022/06/30 01:15:12;;;;;;;;;;;21.30;99.90;;;;;;4988996;28;20272;-65
2022/06/30 01:17:42;;;;;;;;;;;21.20;99.90;;;;;;4989355;28;20204;-65
2022/06/30 01:20:10;;;;;;;;;;;21.20;99.90;;;;;;4990011;28;20199;-65
2022/06/30 01:22:40;;;;;;;;;;;21.20;99.90;;;;;;4988421;28;20286;-65
2022/06/30 01:25:08;;;;;;;;;;;21.20;99.90;;;;;;4988907;28;20203;-65
2022/06/30 01:27:36;;;;;;;;;;;21.20;99.90;;;;;;4988891;28;20221;-65
2022/06/30 01:30:04;;;;;;;;;;;21.10;99.90;;;;;;4989022;28;20261;-65
2022/06/30 01:32:32;;;;;;;;;;;21.10;99.90;;;;;;4988743;28;20196;-65
2022/06/30 01:35:00;;;;;;;;;;;21.10;99.90;;;;;;4989066;28;20238;-65
2022/06/30 01:37:43;;;;;;;;;;;21.20;99.90;;;;;;4988789;28;20684;-64
2022/06/30 01:40:12;;;;;;;;;;;21.20;99.90;;;;;;4988492;28;20257;-64
2022/06/30 01:42:40;;;;;;;;;;;21.30;99.90;;;;;;4990950;28;20213;-65
2022/06/30 01:45:08;;;;;;;;;;;21.20;99.90;;;;;;4988453;28;20249;-65
2022/06/30 01:47:36;;;;;;;;;;;21.20;99.90;;;;;;4988524;28;20232;-65
2022/06/30 01:50:05;;;;;;;;;;;21.20;99.90;;;;;;4988621;28;20681;-65
2022/06/30 01:52:33;;;;;;;;;;;21.20;99.90;;;;;;4988049;28;20230;-65
2022/06/30 01:55:01;;;;;;;;;;;21.20;99.90;;;;;;4991423;28;20254;-65
2022/06/30 01:57:30;;;;;;;;;;;21.20;99.90;;;;;;4992094;28;20735;-65
2022/06/30 01:59:57;;;;;;;;;;;21.20;99.90;;;;;;4991671;28;20253;-64
2022/06/30 02:02:25;;;;;;;;;;;21.20;99.90;;;;;;4991153;28;20203;-65
2022/06/30 02:04:53;;;;;;;;;;;21.30;99.90;;;;;;4991629;28;20553;-65
2022/06/30 02:07:22;;;;;;;;;;;21.30;99.90;;;;;;4991732;28;20295;-65
2022/06/30 02:09:50;;;;;;;;;;;21.30;99.90;;;;;;4991693;28;20664;-65
2022/06/30 02:15:06;;;;;;;;;;;21.40;99.90;;;;;;4991700;28;20286;-65
2022/06/30 02:17:34;;;;;;;;;;;21.40;99.90;;;;;;4991545;28;20204;-65
2022/06/30 02:20:02;;;;;;;;;;;21.40;99.90;;;;;;4991441;28;20624;-65
2022/06/30 02:22:30;;;;;;;;;;;21.50;99.90;;;;;;4990983;28;20402;-65
2022/06/30 02:24:58;;;;;;;;;;;21.50;99.90;;;;;;4991591;28;20261;-64
2022/06/30 02:27:25;;;;;;;;;;;21.50;99.90;;;;;;4991711;28;20250;-64
2022/06/30 02:29:53;;;;;;;;;;;21.60;99.90;;;;;;4991346;28;20920;-64
2022/06/30 02:32:22;;;;;;;;;;;21.60;99.90;;;;;;4990654;28;20637;-65
2022/06/30 02:34:51;;;;;;;;;;;21.60;99.90;;;;;;4990838;28;20632;-65
2022/06/30 02:37:19;;;;;;;;;;;21.70;99.90;;;;;;4991515;28;20204;-65
2022/06/30 02:39:46;;;;;;;;;;;21.70;99.90;;;;;;4990985;28;20277;-65
2022/06/30 02:42:14;;;;;;;;;;;21.80;99.90;;;;;;4990824;28;20644;-65
2022/06/30 02:44:42;;;;;;;;;;;21.80;99.90;;;;;;4991288;28;20290;-65
2022/06/30 02:47:10;;;;;;;;;;;21.80;99.90;;;;;;4991344;28;20199;-65
2022/06/30 02:49:39;;;;;;;;;;;21.70;99.90;;;;;;4991540;28;20214;-65
2022/06/30 02:52:07;;;;;;;;;;;21.70;99.90;;;;;;4990264;28;20250;-65
2022/06/30 02:54:35;;;;;;;;;;;21.60;99.90;;;;;;4992157;28;20196;-65
2022/06/30 02:57:03;;;;;;;;;;;21.60;99.90;;;;;;4991355;28;20700;-65
2022/06/30 02:59:30;;;;;;;;;;;21.50;99.90;;;;;;4990974;28;20675;-65
2022/06/30 03:01:58;;;;;;;;;;;21.50;99.90;;;;;;4990956;28;20246;-66
2022/06/30 03:04:26;;;;;;;;;;;21.40;99.90;;;;;;4990558;28;20287;-64
2022/06/30 03:06:56;;;;;;;;;;;21.40;99.90;;;;;;4990857;28;20207;-65
2022/06/30 03:09:24;;;;;;;;;;;21.40;99.90;;;;;;4990784;28;20235;-65
2022/06/30 03:11:52;;;;;;;;;;;21.50;99.90;;;;;;4990647;28;20692;-64
2022/06/30 03:14:20;;;;;;;;;;;21.50;99.90;;;;;;4990447;28;20204;-65
2022/06/30 03:16:48;;;;;;;;;;;21.50;99.90;;;;;;4990855;28;20579;-65
2022/06/30 03:19:16;;;;;;;;;;;21.60;99.90;;;;;;4991034;28;20241;-65
2022/06/30 03:21:43;;;;;;;;;;;21.60;99.90;;;;;;4990429;28;20191;-64
2022/06/30 03:24:12;;;;;;;;;;;21.60;99.90;;;;;;4990153;28;20240;-65
2022/06/30 03:26:40;;;;;;;;;;;21.60;99.90;;;;;;4990517;28;20231;-65
2022/06/30 03:29:08;;;;;;;;;;;21.60;99.90;;;;;;4990914;28;20200;-65
2022/06/30 03:31:35;;;;;;;;;;;21.60;99.90;;;;;;4990607;28;20299;-65
2022/06/30 03:34:03;;;;;;;;;;;21.50;99.90;;;;;;4989904;28;20580;-65
2022/06/30 03:36:31;;;;;;;;;;;21.60;99.90;;;;;;4990267;28;20238;-65
2022/06/30 03:38:59;;;;;;;;;;;21.60;99.90;;;;;;4990419;28;20261;-64
2022/06/30 03:41:28;;;;;;;;;;;21.60;99.90;;;;;;4990152;28;20676;-64
2022/06/30 03:43:56;;;;;;;;;;;21.50;99.90;;;;;;4989717;28;20227;-64
2022/06/30 03:46:24;;;;;;;;;;;21.50;99.90;;;;;;4990533;28;20243;-64
2022/06/30 03:48:52;;;;;;;;;;;21.50;99.90;;;;;;4990534;28;20685;-64
2022/06/30 03:51:19;;;;;;;;;;;21.60;99.90;;;;;;4989830;28;20208;-65
2022/06/30 03:53:47;;;;;;;;;;;21.60;99.90;;;;;;4995968;28;20203;-64
2022/06/30 03:56:15;;;;;;;;;;;21.50;99.90;;;;;;4989775;28;20204;-64
2022/06/30 03:58:44;;;;;;;;;;;21.50;99.90;;;;;;4990230;28;20191;-64
2022/06/30 04:01:12;;;;;;;;;;;21.50;99.90;;;;;;4989956;28;20244;-64
2022/06/30 04:03:39;;;;;;;;;;;21.40;99.90;;;;;;4989364;28;20714;-64
2022/06/30 04:06:07;;;;;;;;;;;21.40;99.90;;;;;;4989800;28;20235;-65
2022/06/30 04:08:35;;;;;;;;;;;21.40;99.90;;;;;;4989929;28;20290;-65
2022/06/30 04:11:03;;;;;;;;;;;21.40;99.90;;;;;;4989711;28;20242;-64
2022/06/30 04:13:30;;;;;;;;;;;21.30;99.90;;;;;;4989292;28;20204;-64
2022/06/30 04:15:59;;;;;;;;;;;21.30;99.90;;;;;;4989040;28;20241;-64
2022/06/30 04:18:27;;;;;;;;;;;21.30;99.90;;;;;;4989791;28;20211;-64
2022/06/30 04:20:55;;;;;;;;;;;21.30;99.90;;;;;;4993165;28;20841;-64
2022/06/30 04:23:23;;;;;;;;;;;21.40;99.90;;;;;;4988973;28;20203;-65
2022/06/30 04:25:50;;;;;;;;;;;21.50;99.90;;;;;;4989898;28;20223;-64
2022/06/30 04:28:18;;;;;;;;;;;21.50;99.90;;;;;;4990729;28;20252;-63
2022/06/30 04:33:33;;;;;;;;;;;21.40;99.90;;;;;;4974761;28;20187;-64
2022/06/30 04:36:01;;;;;;;;;;;21.40;99.90;;;;;;4975512;28;20583;-64
2022/06/30 04:38:28;;;;;;;;;;;21.40;99.90;;;;;;4974596;28;20239;-64
2022/06/30 04:43:41;;;;;;;;;;;21.40;99.90;;;;;;4984083;28;20248;-65
2022/06/30 04:46:09;;;;;;;;;;;21.40;99.90;;;;;;4985609;28;20203;-64
2022/06/30 04:48:38;;;;;;;;;;;21.30;99.90;;;;;;4985701;28;20235;-65
2022/06/30 04:51:07;;;;;;;;;;;21.30;99.90;;;;;;4980352;28;20334;-65
2022/06/30 04:53:35;;;;;;;;;;;21.30;99.90;;;;;;4982703;28;20692;-65
2022/06/30 04:56:03;;;;;;;;;;;21.30;99.90;;;;;;4987094;28;20295;-64
2022/06/30 04:58:31;;;;;;;;;;;21.20;99.90;;;;;;4987583;28;20255;-64
2022/06/30 05:00:59;;;;;;;;;;;21.30;99.90;;;;;;4986472;28;20199;-64
2022/06/30 05:03:26;;;;;;;;;;;21.20;99.90;;;;;;4986093;28;21013;-64
2022/06/30 05:05:55;;;;;;;;;;;21.30;99.90;;;;;;4989376;28;20207;-64
2022/06/30 05:08:23;;;;;;;;;;;21.30;99.90;;;;;;4988394;28;20985;-64
2022/06/30 05:10:51;;;;;;;;;;;21.20;99.90;;;;;;4989415;28;20318;-64
2022/06/30 05:13:26;;;;;;;;;;;21.30;99.90;;;;;;4985824;28;20223;-64
2022/06/30 05:15:53;;;;;;;;;;;21.40;99.90;;;;;;4987912;28;20203;-64
2022/06/30 05:18:24;;;;;;;;;;;21.50;99.90;;;;;;4988429;28;20225;-64
2022/06/30 05:20:52;;;;;;;;;;;21.50;99.90;;;;;;4987218;28;20680;-64
2022/06/30 05:23:21;;;;;;;;;;;21.60;99.90;;;;;;4986025;28;20546;-64
2022/06/30 05:28:34;;;;;;;;;;;21.50;99.90;;;;;;4991174;28;20264;-63
2022/06/30 05:31:02;;;;;;;;;;;21.50;99.90;;;;;;4993387;28;20203;-65
2022/06/30 05:33:30;;;;;;;;;;;21.50;99.90;;;;;;4989446;28;20893;-66
2022/06/30 05:35:58;;;;;;;;;;;21.50;99.90;;;;;;4997141;28;20195;-65
2022/06/30 05:38:28;;;;;;;;;;;21.60;99.90;;;;;;4992356;28;20207;-64
2022/06/30 05:40:55;;;;;;;;;;;21.60;99.90;;;;;;4983929;28;20318;-64
2022/06/30 05:43:23;;;;;;;;;;;21.70;99.90;;;;;;4982987;28;20366;-66
2022/06/30 05:45:53;;;;;;;;;;;21.70;99.90;;;;;;4981281;28;20860;-65
2022/06/30 05:48:21;;;;;;;;;;;21.60;99.90;;;;;;4980287;28;20088;-65
2022/06/30 05:50:49;;;;;;;;;;;21.50;99.90;;;;;;4983698;28;20211;-64
2022/06/30 05:53:17;;;;;;;;;;;21.50;99.90;;;;;;4980519;28;20212;-65
2022/06/30 05:55:46;;;;;;;;;;;21.60;99.90;;;;;;4978277;28;20321;-65
2022/06/30 05:58:15;;;;;;;;;;;21.70;99.90;;;;;;4980944;28;20216;-64
2022/06/30 06:00:43;;;;;;;;;;;21.90;99.90;;;;;;4982634;28;20221;-64
2022/06/30 06:03:10;;;;;;;;;;;22.00;99.90;;;;;;4980384;28;20323;-64
2022/06/30 06:05:38;;;;;;;;;;;22.10;99.90;;;;;;4982076;28;20649;-65
2022/06/30 06:08:06;;;;;;;;;;;22.10;99.90;;;;;;4984180;28;20204;-64
2022/06/30 06:10:35;;;;;;;;;;;22.20;99.90;;;;;;4980946;28;21090;-64
2022/06/30 06:13:04;;;;;;;;;;;22.30;99.90;;;;;;4978984;28;20208;-65
2022/06/30 06:15:32;;;;;;;;;;;22.40;99.90;;;;;;4979453;28;20212;-64
2022/06/30 06:18:01;;;;;;;;;;;22.50;99.90;;;;;;4982076;28;20204;-64
2022/06/30 06:20:29;;;;;;;;;;;22.70;99.90;;;;;;4985187;28;20261;-64
2022/06/30 06:22:56;;;;;;;;;;;22.80;99.90;;;;;;4993060;28;20200;-64
2022/06/30 06:25:24;;;;;;;;;;;22.80;99.90;;;;;;4990190;28;20204;-64
2022/06/30 06:30:39;;;;;;;;;;;23.00;99.90;;;;;;4991531;28;20211;-64
2022/06/30 06:33:07;;;;;;;;;;;23.10;99.90;;;;;;4990912;28;20200;-64
2022/06/30 06:35:34;;;;;;;;;;;23.20;99.90;;;;;;4990779;28;20260;-64
2022/06/30 06:38:02;;;;;;;;;;;23.40;99.90;;;;;;4991608;28;20195;-64
2022/06/30 06:40:30;;;;;;;;;;;23.50;99.90;;;;;;4990536;28;20211;-64
2022/06/30 06:42:58;;;;;;;;;;;23.60;99.90;;;;;;4991016;28;20239;-64
2022/06/30 06:45:26;;;;;;;;;;;23.60;99.90;;;;;;4990951;28;20231;-65
2022/06/30 06:47:55;;;;;;;;;;;23.70;99.90;;;;;;4991266;28;20228;-64
2022/06/30 06:50:22;;;;;;;;;;;23.80;99.90;;;;;;4991201;28;20249;-64
2022/06/30 06:52:50;;;;;;;;;;;23.90;99.90;;;;;;4990048;28;20250;-64
2022/06/30 06:55:19;;;;;;;;;;;24.10;99.90;;;;;;4990743;28;20295;-65
2022/06/30 06:57:47;;;;;;;;;;;24.40;99.90;;;;;;4991010;28;20238;-64
2022/06/30 07:00:17;;;;;;;;;;;24.40;99.90;;;;;;4991101;28;20605;-64
2022/06/30 07:02:45;;;;;;;;;;;24.60;99.90;;;;;;4990238;28;20288;-65
2022/06/30 07:05:14;;;;;;;;;;;24.60;99.90;;;;;;4990679;28;20244;-64
2022/06/30 07:07:41;;;;;;;;;;;24.50;99.90;;;;;;4990452;28;20665;-64
2022/06/30 07:10:10;;;;;;;;;;;24.60;99.90;;;;;;4990811;28;20233;-64
2022/06/30 07:12:37;;;;;;;;;;;24.70;99.90;;;;;;4990270;28;20253;-64
2022/06/30 07:15:06;;;;;;;;;;;24.80;99.90;;;;;;4990758;28;20208;-64
2022/06/30 07:17:36;;;;;;;;;;;24.80;99.90;;;;;;4990722;28;20283;-65
2022/06/30 07:20:05;;;;;;;;;;;24.90;99.90;;;;;;4990750;28;20234;-65
2022/06/30 07:22:34;;;;;;;;;;;25.10;99.90;;;;;;4989635;28;20214;-65
2022/06/30 07:25:02;;;;;;;;;;;25.20;99.90;;;;;;4990588;28;20696;-64
2022/06/30 07:27:33;;;;;;;;;;;25.10;99.90;;;;;;4990592;28;20627;-65
2022/06/30 07:30:01;;;;;;;;;;;25.10;99.90;;;;;;4990591;28;20295;-65
2022/06/30 07:32:29;;;;;;;;;;;25.30;99.90;;;;;;4990192;28;20249;-64
2022/06/30 07:34:57;;;;;;;;;;;25.30;99.90;;;;;;4990267;28;20204;-64
2022/06/30 07:37:25;;;;;;;;;;;25.50;99.90;;;;;;4990190;28;20196;-65
2022/06/30 07:39:54;;;;;;;;;;;25.60;99.90;;;;;;4990261;28;20219;-64
2022/06/30 07:42:22;;;;;;;;;;;25.70;99.90;;;;;;4989970;28;20623;-67
2022/06/30 07:44:49;;;;;;;;;;;25.90;99.90;;;;;;4990445;28;20665;-66
2022/06/30 07:47:17;;;;;;;;;;;25.90;99.90;;;;;;4990185;28;20191;-66
2022/06/30 07:49:45;;;;;;;;;;;26.00;99.90;;;;;;4989955;28;20203;-67
2022/06/30 07:52:13;;;;;;;;;;;26.00;99.90;;;;;;4989354;28;20204;-67
2022/06/30 07:54:46;;;;;;;;;;;26.10;99.90;;;;;;4990370;28;20200;-67
2022/06/30 07:57:15;;;;;;;;;;;26.20;99.90;;;;;;4989938;28;20196;-67
2022/06/30 07:59:59;;;;;;;;;;;26.10;99.90;;;;;;4989973;28;20204;-64
2022/06/30 08:02:26;;;;;;;;;;;26.10;99.90;;;;;;4990032;28;20294;-64
2022/06/30 08:04:54;;;;;;;;;;;26.30;99.90;;;;;;4989522;28;20196;-64
2022/06/30 08:07:22;;;;;;;;;;;26.50;99.90;;;;;;4989497;28;20249;-64
2022/06/30 08:09:50;;;;;;;;;;;26.70;99.90;;;;;;4990194;28;20578;-64
2022/06/30 08:12:19;;;;;;;;;;;26.90;99.90;;;;;;4989098;28;20204;-64
2022/06/30 08:14:47;;;;;;;;;;;27.10;99.90;;;;;;4989747;28;20204;-64
2022/06/30 08:17:15;;;;;;;;;;;27.20;99.90;;;;;;4989748;28;20192;-64
2022/06/30 08:19:43;;;;;;;;;;;27.40;99.90;;;;;;4989979;28;20200;-64
2022/06/30 08:22:11;;;;;;;;;;;27.60;99.90;;;;;;4989228;28;20204;-64
2022/06/30 08:24:38;;;;;;;;;;;27.80;99.90;;;;;;4989531;28;20230;-64
2022/06/30 08:27:06;;;;;;;;;;;28.10;99.90;;;;;;4989464;28;20204;-64
2022/06/30 08:29:35;;;;;;;;;;;28.20;99.90;;;;;;4990011;28;20208;-64
2022/06/30 08:32:04;;;;;;;;;;;28.20;99.90;;;;;;4989113;28;20253;-64
2022/06/30 08:34:33;;;;;;;;;;;28.40;99.90;;;;;;4989331;28;20517;-64
2022/06/30 08:37:01;;;;;;;;;;;28.30;99.90;;;;;;4989169;28;20195;-64
2022/06/30 08:42:14;;;;;;;;;;;28.60;99.90;;;;;;4989126;28;20669;-64
2022/06/30 08:44:44;;;;;;;;;;;28.80;99.90;;;;;;4989547;28;20200;-64
2022/06/30 08:47:12;;;;;;;;;;;28.90;99.90;;;;;;4989429;28;20625;-64
2022/06/30 08:49:40;;;;;;;;;;;29.20;99.90;;;;;;4989501;28;20303;-64
2022/06/30 08:52:08;;;;;;;;;;;29.50;99.90;;;;;;4988520;28;20692;-64
2022/06/30 08:54:38;;;;;;;;;;;29.50;99.90;;;;;;4990492;28;20214;-64
2022/06/30 08:57:07;;;;;;;;;;;29.60;99.90;;;;;;4989133;28;20199;-65
2022/06/30 08:59:35;;;;;;;;;;;29.80;99.90;;;;;;4989298;28;20204;-65
2022/06/30 09:02:05;;;;;;;;;;;30.00;99.90;;;;;;4989313;28;20204;-64
2022/06/30 09:04:33;;;;;;;;;;;30.00;99.90;;;;;;4989101;28;20195;-65
2022/06/30 09:07:01;;;;;;;;;;;30.10;99.90;;;;;;4989151;28;20199;-65
2022/06/30 09:09:29;;;;;;;;;;;30.30;99.90;;;;;;4989466;28;20215;-65
2022/06/30 09:11:57;;;;;;;;;;;30.50;99.90;;;;;;4989033;28;20199;-65
2022/06/30 09:14:35;;;;;;;;;;;30.80;99.90;;;;;;4988924;28;20219;-65
2022/06/30 09:17:03;;;;;;;;;;;31.00;99.90;;;;;;4988878;28;20230;-65
2022/06/30 09:19:33;;;;;;;;;;;31.10;99.90;;;;;;4989198;28;20212;-65
2022/06/30 09:22:07;;;;;;;;;;;31.10;99.90;;;;;;4988659;28;20257;-65
2022/06/30 09:24:36;;;;;;;;;;;31.10;99.90;;;;;;4983039;28;20202;-65
2022/06/30 09:27:11;;;;;;;;;;;31.40;99.90;;;;;;4982730;28;20260;-64
2022/06/30 09:29:49;;;;;;;;;;;31.80;99.90;;;;;;4988695;28;20722;-65
2022/06/30 09:32:47;;;;;;;;;;;31.90;99.90;;;;;;4988530;28;20227;-67
2022/06/30 09:35:18;;;;;;;;;;;31.90;99.90;;;;;;4988769;28;20195;-65
2022/06/30 09:37:46;;;;;;;;;;;32.10;99.60;;;;;;4986206;28;20211;-65
2022/06/30 09:40:14;;;;;;;;;;;32.50;99.60;;;;;;4982417;28;20207;-65
2022/06/30 09:42:43;;;;;;;;;;;32.70;99.90;;;;;;4982212;28;20200;-65
2022/06/30 09:45:40;;;;;;;;;;;33.00;99.90;;;;;;4984599;28;20188;-65
2022/06/30 09:48:08;;;;;;;;;;;33.00;97.90;;;;;;4988642;28;20242;-65
2022/06/30 09:50:37;;;;;;;;;;;33.10;96.90;;;;;;4988583;28;20204;-64
2022/06/30 09:53:10;;;;;;;;;;;33.20;97.00;;;;;;4987801;28;20208;-65
2022/06/30 09:55:43;;;;;;;;;;;33.40;95.40;;;;;;5023837;28;20186;-65
2022/06/30 09:58:11;;;;;;;;;;;33.80;95.50;;;;;;4985928;28;20729;-65
2022/06/30 10:00:43;;;;;;;;;;;33.80;96.20;;;;;;4988858;28;20549;-65
2022/06/30 10:03:12;;;;;;;;;;;34.10;95.20;;;;;;4988322;28;20184;-65
2022/06/30 10:05:44;;;;;;;;;;;34.20;93.60;;;;;;4988684;28;20171;-65
2022/06/30 10:08:13;;;;;;;;;;;34.00;92.70;;;;;;4988428;28;20204;-64
2022/06/30 10:10:41;;;;;;;;;;;34.10;92.30;;;;;;4988375;28;20207;-65
2022/06/30 10:13:12;;;;;;;;;;;34.20;92.30;;;;;;4987829;28;20182;-65
2022/06/30 10:15:40;;;;;;;;;;;34.30;91.70;;;;;;4991223;28;20183;-65
2022/06/30 10:18:09;;;;;;;;;;;34.10;92.00;;;;;;4991776;28;20210;-65
2022/06/30 10:20:38;;;;;;;;;;;34.20;93.10;;;;;;4991961;28;20196;-65
2022/06/30 10:23:09;;;;;;;;;;;34.20;91.50;;;;;;4990920;28;20577;-65
2022/06/30 10:25:37;;;;;;;;;;;34.60;92.70;;;;;;4991735;28;20224;-65
2022/06/30 10:28:05;;;;;;;;;;;34.80;91.60;;;;;;4991542;28;20643;-65
2022/06/30 10:30:41;;;;;;;;;;;35.20;92.20;;;;;;4991360;28;20607;-65
2022/06/30 10:33:13;;;;;;;;;;;35.10;90.80;;;;;;4990956;28;20206;-65
2022/06/30 10:35:43;;;;;;;;;;;34.90;90.90;;;;;;4991568;28;20609;-64
2022/06/30 10:38:14;;;;;;;;;;;34.80;92.30;;;;;;4991395;28;20850;-65
2022/06/30 10:40:47;;;;;;;;;;;34.80;91.80;;;;;;4991152;28;20295;-65
2022/06/30 10:43:16;;;;;;;;;;;35.30;91.90;;;;;;4990723;28;20183;-65
2022/06/30 10:45:57;;;;;;;;;;;35.40;90.60;;;;;;4991273;28;20253;-65
2022/06/30 10:48:27;;;;;;;;;;;35.80;91.80;;;;;;4991148;28;20236;-65
2022/06/30 10:50:56;;;;;;;;;;;35.90;90.70;;;;;;4991310;28;20212;-65
2022/06/30 10:53:43;;;;;;;;;;;36.10;90.30;;;;;;4990860;28;20244;-65
2022/06/30 10:56:19;;;;;;;;;;;36.40;90.00;;;;;;4985476;28;20544;-65
2022/06/30 10:59:05;;;;;;;;;;;36.50;90.50;;;;;;4990897;28;20322;-65
2022/06/30 11:01:33;;;;;;;;;;;36.50;89.30;;;;;;4990984;28;20568;-65
2022/06/30 11:04:01;;;;;;;;;;;36.70;88.00;;;;;;4990438;28;20242;-65
2022/06/30 11:06:48;;;;;;;;;;;36.60;89.10;;;;;;4990994;28;20277;-65
2022/06/30 11:09:16;;;;;;;;;;;36.80;86.40;;;;;;4990729;28;20201;-65
2022/06/30 11:11:45;;;;;;;;;;;36.70;87.80;;;;;;4990942;28;20262;-65
2022/06/30 11:14:24;;;;;;;;;;;37.00;86.00;;;;;;4990469;28;20315;-65
2022/06/30 11:16:51;;;;;;;;;;;37.20;86.30;;;;;;4990968;28;20602;-65
2022/06/30 11:19:22;;;;;;;;;;;37.00;84.30;;;;;;4990568;28;20254;-65
2022/06/30 11:21:50;;;;;;;;;;;36.60;84.30;;;;;;4991201;28;20250;-65
2022/06/30 11:24:22;;;;;;;;;;;36.50;88.30;;;;;;4989997;28;20193;-65
2022/06/30 11:29:39;;;;;;;;;;;36.50;86.70;;;;;;4990449;28;20204;-65
2022/06/30 11:32:07;;;;;;;;;;;36.40;83.00;;;;;;4990102;28;20194;-65
2022/06/30 11:34:37;;;;;;;;;;;36.20;83.00;;;;;;4990632;28;20661;-65
2022/06/30 11:37:05;;;;;;;;;;;36.00;83.50;;;;;;4990745;28;20206;-65
2022/06/30 11:39:32;;;;;;;;;;;36.20;84.20;;;;;;4989933;28;20247;-65
2022/06/30 11:42:07;;;;;;;;;;;36.50;85.70;;;;;;4989970;28;20553;-67
2022/06/30 11:44:38;;;;;;;;;;;36.40;85.10;;;;;;4990949;28;20230;-67
2022/06/30 11:47:06;;;;;;;;;;;36.60;83.70;;;;;;4990459;28;20666;-67
2022/06/30 11:49:41;;;;;;;;;;;37.10;82.30;;;;;;4990275;28;20183;-67
2022/06/30 11:52:15;;;;;;;;;;;37.30;83.70;;;;;;4983635;28;20547;-67
2022/06/30 11:54:44;;;;;;;;;;;37.60;82.10;;;;;;4984505;28;20220;-67
2022/06/30 11:57:13;;;;;;;;;;;36.90;82.10;;;;;;4989065;28;20223;-64
2022/06/30 11:59:44;;;;;;;;;;;35.70;81.70;;;;;;4989928;28;20323;-65
2022/06/30 12:02:12;;;;;;;;;;;35.10;82.60;;;;;;4989811;28;20184;-65
2022/06/30 12:04:42;;;;;;;;;;;34.20;83.80;;;;;;4989797;28;20190;-65
2022/06/30 12:07:10;;;;;;;;;;;34.10;84.20;;;;;;4990140;28;20170;-65
2022/06/30 12:09:38;;;;;;;;;;;34.10;86.70;;;;;;4989679;28;20644;-65
2022/06/30 12:12:06;;;;;;;;;;;33.60;87.10;;;;;;4989412;28;20194;-65
2022/06/30 12:14:36;;;;;;;;;;;33.20;87.40;;;;;;4990081;28;20189;-65
2022/06/30 12:17:05;;;;;;;;;;;33.00;87.60;;;;;;4990199;28;20209;-65
2022/06/30 12:19:32;;;;;;;;;;;33.00;86.80;;;;;;4989542;28;20191;-65
2022/06/30 12:22:02;;;;;;;;;;;32.80;89.50;;;;;;4989392;28;20179;-65
2022/06/30 12:24:29;;;;;;;;;;;33.10;90.10;;;;;;4989826;28;20243;-65
2022/06/30 12:26:58;;;;;;;;;;;33.20;89.10;;;;;;4989154;28;20231;-65
2022/06/30 12:29:28;;;;;;;;;;;33.50;86.80;;;;;;4989694;28;20183;-65
2022/06/30 12:32:01;;;;;;;;;;;33.90;87.10;;;;;;4989572;28;20243;-65
2022/06/30 12:34:29;;;;;;;;;;;34.40;85.60;;;;;;4989836;28;25166;-65
2022/06/30 12:36:59;;;;;;;;;;;34.50;87.30;;;;;;4989060;28;20169;-65
2022/06/30 12:39:27;;;;;;;;;;;34.40;90.30;;;;;;4989219;28;20202;-65
2022/06/30 12:42:01;;;;;;;;;;;34.50;85.70;;;;;;4989456;28;20228;-65
2022/06/30 12:44:30;;;;;;;;;;;34.40;85.80;;;;;;4989552;28;20210;-65
2022/06/30 12:47:03;;;;;;;;;;;34.50;88.10;;;;;;4989611;28;20201;-65
2022/06/30 12:49:31;;;;;;;;;;;33.80;86.20;;;;;;4989464;28;20231;-65
2022/06/30 12:51:59;;;;;;;;;;;33.80;86.30;;;;;;4989234;28;20172;-65
2022/06/30 12:54:28;;;;;;;;;;;34.20;85.50;;;;;;4989218;28;20192;-65
2022/06/30 12:57:05;;;;;;;;;;;34.70;86.70;;;;;;4988324;28;22447;-65
2022/06/30 12:59:33;;;;;;;;;;;35.30;82.80;;;;;;4989236;28;20278;-65
2022/06/30 13:02:01;;;;;;;;;;;35.60;83.50;;;;;;4989185;28;20633;-65
2022/06/30 13:04:31;;;;;;;;;;;36.00;85.10;;;;;;4989917;28;20629;-65
2022/06/30 13:07:00;;;;;;;;;;;35.70;79.60;;;;;;4989883;28;20252;-65
2022/06/30 13:09:29;;;;;;;;;;;35.70;78.90;;;;;;4989139;28;20182;-65
2022/06/30 13:11:58;;;;;;;;;;;35.80;78.80;;;;;;4989479;28;20207;-65
2022/06/30 13:14:27;;;;;;;;;;;35.10;78.80;;;;;;4989720;28;20185;-65
2022/06/30 13:16:55;;;;;;;;;;;34.50;80.90;;;;;;4983083;28;20185;-65
2022/06/30 13:19:23;;;;;;;;;;;34.20;80.30;;;;;;4982601;28;20295;-65
2022/06/30 13:21:52;;;;;;;;;;;34.00;82.10;;;;;;4989363;28;20651;-65
2022/06/30 13:24:21;;;;;;;;;;;33.80;81.90;;;;;;4982384;28;20186;-65
2022/06/30 13:26:51;;;;;;;;;;;34.20;82.90;;;;;;4988835;28;20558;-65
2022/06/30 13:29:18;;;;;;;;;;;34.50;82.50;;;;;;4982765;28;20231;-65
2022/06/30 13:31:47;;;;;;;;;;;34.60;82.20;;;;;;4982826;28;20205;-65
2022/06/30 13:34:15;;;;;;;;;;;34.80;80.70;;;;;;4982180;28;20201;-65
2022/06/30 13:36:43;;;;;;;;;;;34.80;80.70;;;;;;4983014;28;20206;-65
2022/06/30 13:39:13;;;;;;;;;;;35.40;79.90;;;;;;4982632;28;20186;-66
2022/06/30 13:41:42;;;;;;;;;;;36.00;81.50;;;;;;4982405;28;20267;-66
2022/06/30 13:44:09;;;;;;;;;;;35.90;79.20;;;;;;4988370;28;20206;-65
2022/06/30 13:46:38;;;;;;;;;;;35.70;79.70;;;;;;4988932;28;20185;-65
2022/06/30 13:49:06;;;;;;;;;;;35.60;79.30;;;;;;4990474;28;20239;-66
2022/06/30 13:51:38;;;;;;;;;;;35.60;80.40;;;;;;4992151;28;20304;-66
2022/06/30 13:54:06;;;;;;;;;;;35.60;79.30;;;;;;4991454;28;20277;-66
2022/06/30 13:56:35;;;;;;;;;;;35.90;79.60;;;;;;4991810;28;20201;-65
2022/06/30 13:59:04;;;;;;;;;;;36.20;78.20;;;;;;4991772;28;20189;-66
2022/06/30 14:01:33;;;;;;;;;;;36.50;77.70;;;;;;4991796;28;20657;-65
2022/06/30 14:04:02;;;;;;;;;;;36.60;78.10;;;;;;4991447;28;20219;-66
2022/06/30 14:06:30;;;;;;;;;;;36.80;74.10;;;;;;4992109;28;20190;-66
2022/06/30 14:08:57;;;;;;;;;;;36.80;73.80;;;;;;4991806;28;20196;-66
2022/06/30 14:11:25;;;;;;;;;;;37.10;71.80;;;;;;4991843;28;20649;-66
2022/06/30 14:13:54;;;;;;;;;;;37.40;74.00;;;;;;4991019;28;20193;-65
2022/06/30 14:16:22;;;;;;;;;;;37.60;72.80;;;;;;4991780;28;20532;-66
2022/06/30 14:18:51;;;;;;;;;;;37.80;72.20;;;;;;4991696;28;20208;-66
2022/06/30 14:21:19;;;;;;;;;;;37.40;71.90;;;;;;4991763;28;20303;-65
2022/06/30 14:23:47;;;;;;;;;;;36.30;72.40;;;;;;4990909;28;20246;-65
2022/06/30 14:26:15;;;;;;;;;;;35.50;73.80;;;;;;4991471;28;20227;-65
2022/06/30 14:28:43;;;;;;;;;;;35.10;74.80;;;;;;4991349;28;20182;-65
2022/06/30 14:31:12;;;;;;;;;;;35.20;74.20;;;;;;4991447;28;20198;-65
2022/06/30 14:33:40;;;;;;;;;;;35.60;74.30;;;;;;4990957;28;20205;-65
2022/06/30 14:36:07;;;;;;;;;;;36.30;73.70;;;;;;4991558;28;20304;-65
2022/06/30 14:38:37;;;;;;;;;;;36.70;74.70;;;;;;4991542;28;20172;-65
2022/06/30 14:41:04;;;;;;;;;;;36.90;71.50;;;;;;4990824;28;20307;-65
2022/06/30 14:43:31;;;;;;;;;;;37.10;72.90;;;;;;4990616;28;20208;-66
2022/06/30 14:46:01;;;;;;;;;;;37.30;72.80;;;;;;4991286;28;20528;-65
2022/06/30 14:48:30;;;;;;;;;;;37.40;72.30;;;;;;4991342;28;20198;-66